Time;durP1;ratioP1;P1;durP2;ratioP2;P2;SDS_P1;SDS_P2;PMS_P1;PMS_P2;Temp;Humidity;BMP_temperature;BMP_pressure;BME280_temperature;BME280_humidity;BME280_pressure;Samples;Min_cycle;Max_cycle;Signal;HPM_P1;HPM_P2
2021/08/10 00:02:23;;;;;;;;;;;;;;;;;;5007508;28;20405;-67
2021/08/10 00:04:50;;;;;;;;;;;;;;;;;;5018290;28;20041;-66
2021/08/10 00:07:17;;;;;;;;;;;;;;;;;;5010173;28;19929;-66
2021/08/10 00:09:44;;;;;;;;;;;;;;;;;;5005084;28;19941;-67
2021/08/10 00:12:11;;;;;;;;;;;;;;;;;;5004600;28;20374;-67
2021/08/10 00:14:38;;;;;;;;;;;;;;;;;;5012846;28;19933;-67
2021/08/10 00:17:05;;;;;;;;;;;;;;;;;;5010574;28;19926;-67
2021/08/10 00:19:32;;;;;;;;;;;;;;;;;;5009086;28;19933;-68
2021/08/10 00:21:59;;;;;;;;;;;;;;;;;;5016033;28;19925;-65
2021/08/10 00:24:26;;;;;;;;;;;;;;;;;;5017368;28;20023;-65
2021/08/10 00:26:53;;;;;;;;;;;;;;;;;;5012566;28;20298;-66
2021/08/10 00:29:20;;;;;;;;;;;;;;;;;;5012182;28;20405;-65
2021/08/10 00:31:47;;;;;;;;;;;;;;;;;;5023766;28;19929;-67
2021/08/10 00:34:13;;;;;;;;;;;;;;;;;;5008216;28;19933;-67
2021/08/10 00:36:40;;;;;;;;;;;;;;;;;;5011997;28;19936;-66
2021/08/10 00:39:07;;;;;;;;;;;;;;;;;;5013495;28;19932;-66
2021/08/10 00:41:34;;;;;;;;;;;;;;;;;;5016482;28;19948;-66
2021/08/10 00:44:01;;;;;;;;;;;;;;;;;;5014787;28;20469;-66
2021/08/10 00:46:28;;;;;;;;;;;;;;;;;;5008006;28;19933;-66
2021/08/10 00:48:55;;;;;;;;;;;;;;;;;;5009952;28;20456;-66
2021/08/10 00:51:22;;;;;;;;;;;;;;;;;;5016201;28;19925;-66
2021/08/10 00:53:49;;;;;;;;;;;;;;;;;;5007544;28;19932;-66
2021/08/10 00:56:16;;;;;;;;;;;;;;;;;;5010680;28;19944;-67
2021/08/10 00:58:43;;;;;;;;;;;;;;;;;;5013058;28;19925;-68
2021/08/10 01:01:10;;;;;;;;;;;;;;;;;;5008752;28;19929;-66
2021/08/10 01:03:37;;;;;;;;;;;;;;;;;;5010076;28;20413;-66
2021/08/10 01:06:04;;;;;;;;;;;;;;;;;;5012369;28;19925;-67
2021/08/10 01:08:31;;;;;;;;;;;;;;;;;;5014986;28;19926;-67
2021/08/10 01:10:58;;;;;;;;;;;;;;;;;;5011197;28;19930;-67
2021/08/10 01:13:25;;;;;;;;;;;;;;;;;;5011223;28;20394;-67
2021/08/10 01:15:52;;;;;;;;;;;;;;;;;;5006434;28;19925;-67
2021/08/10 01:18:19;;;;;;;;;;;;;;;;;;5007384;28;19926;-66
2021/08/10 01:20:46;;;;;;;;;;;;;;;;;;5021416;28;19936;-67
2021/08/10 01:23:13;;;;;;;;;;;;;;;;;;5010948;28;19925;-66
2021/08/10 01:25:40;;;;;;;;;;;;;;;;;;5003041;28;19925;-67
2021/08/10 01:28:07;;;;;;;;;;;;;;;;;;5007464;28;20346;-67
2021/08/10 01:30:34;;;;;;;;;;;;;;;;;;5011290;28;19926;-66
2021/08/10 01:33:01;;;;;;;;;;;;;;;;;;5016580;28;19925;-67
2021/08/10 01:35:27;;;;;;;;;;;;;;;;;;5008177;28;19925;-67
2021/08/10 01:37:54;;;;;;;;;;;;;;;;;;5009242;28;19929;-67
2021/08/10 01:40:21;;;;;;;;;;;;;;;;;;5010809;28;20946;-66
2021/08/10 01:42:48;;;;;;;;;;;;;;;;;;5014100;28;19925;-67
2021/08/10 01:45:15;;;;;;;;;;;;;;;;;;5007745;28;20012;-66
2021/08/10 01:47:43;;;;;;;;;;;;;;;;;;5009680;28;19933;-67
2021/08/10 01:50:10;;;;;;;;;;;;;;;;;;5003950;28;19989;-67
2021/08/10 01:52:37;;;;;;;;;;;;;;;;;;5006095;28;19933;-67
2021/08/10 01:55:04;;;;;;;;;;;;;;;;;;5017310;28;19948;-68
2021/08/10 01:57:31;;;;;;;;;;;;;;;;;;5011275;28;20298;-67
2021/08/10 01:59:58;;;;;;;;;;;;;;;;;;5013699;28;19934;-66
2021/08/10 02:02:24;;;;;;;;;;;;;;;;;;5011192;28;19925;-67
2021/08/10 02:04:52;;;;;;;;;;;;;;;;;;5020322;28;19925;-68
2021/08/10 02:07:20;;;;;;;;;;;;;;;;;;5006555;28;19932;-67
2021/08/10 02:09:47;;;;;;;;;;;;;;;;;;5009638;28;19937;-67
2021/08/10 02:12:13;;;;;;;;;;;;;;;;;;5007135;28;19934;-66
2021/08/10 02:14:40;;;;;;;;;;;;;;;;;;5013001;28;19932;-67
2021/08/10 02:17:07;;;;;;;;;;;;;;;;;;5000710;28;19925;-67
2021/08/10 02:19:34;;;;;;;;;;;;;;;;;;5006635;28;19933;-66
2021/08/10 02:22:01;;;;;;;;;;;;;;;;;;5002028;28;20345;-67
2021/08/10 02:24:28;;;;;;;;;;;;;;;;;;5006588;28;19925;-67
2021/08/10 02:26:55;;;;;;;;;;;;;;;;;;5006878;28;19936;-68
2021/08/10 02:29:22;;;;;;;;;;;;;;;;;;5008354;28;19983;-67
2021/08/10 02:31:49;;;;;;;;;;;;;;;;;;5015678;28;20401;-67
2021/08/10 02:34:16;;;;;;;;;;;;;;;;;;5012646;28;19929;-66
2021/08/10 02:36:43;;;;;;;;;;;;;;;;;;5008805;28;19930;-66
2021/08/10 02:39:10;;;;;;;;;;;;;;;;;;5012097;28;19929;-66
2021/08/10 02:41:37;;;;;;;;;;;;;;;;;;5012313;28;20397;-66
2021/08/10 02:44:04;;;;;;;;;;;;;;;;;;5010185;28;19932;-66
2021/08/10 02:46:31;;;;;;;;;;;;;;;;;;5011567;28;19925;-67
2021/08/10 02:48:58;;;;;;;;;;;;;;;;;;5006666;28;19969;-67
2021/08/10 02:51:26;;;;;;;;;;;;;;;;;;5008322;28;19933;-67
2021/08/10 02:53:53;;;;;;;;;;;;;;;;;;5014162;28;20675;-67
2021/08/10 02:56:20;;;;;;;;;;;;;;;;;;5010418;28;20302;-66
2021/08/10 02:58:47;;;;;;;;;;;;;;;;;;5006290;28;20298;-67
2021/08/10 03:01:14;;;;;;;;;;;;;;;;;;5012351;28;19936;-67
2021/08/10 03:03:40;;;;;;;;;;;;;;;;;;5011705;28;19932;-67
2021/08/10 03:06:07;;;;;;;;;;;;;;;;;;5006703;28;19933;-67
2021/08/10 03:08:34;;;;;;;;;;;;;;;;;;5006738;28;20412;-67
2021/08/10 03:11:02;;;;;;;;;;;;;;;;;;5008556;28;20300;-67
2021/08/10 03:13:29;;;;;;;;;;;;;;;;;;5006913;28;19968;-68
2021/08/10 03:15:56;;;;;;;;;;;;;;;;;;5010684;28;19935;-67
2021/08/10 03:18:25;;;;;;;;;;;;;;;;;;5002915;28;19934;-67
2021/08/10 03:20:56;;;;;;;;;;;;;;;;;;5008151;28;19929;-67
2021/08/10 03:23:23;;;;;;;;;;;;;;;;;;5008931;28;19934;-67
2021/08/10 03:25:50;;;;;;;;;;;;;;;;;;5017682;28;19925;-67
2021/08/10 03:28:17;;;;;;;;;;;;;;;;;;5008805;28;19930;-67
2021/08/10 03:30:44;;;;;;;;;;;;;;;;;;5010207;28;19933;-67
2021/08/10 03:33:11;;;;;;;;;;;;;;;;;;5012496;28;19939;-67
2021/08/10 03:35:38;;;;;;;;;;;;;;;;;;5006578;28;20275;-67
2021/08/10 03:38:05;;;;;;;;;;;;;;;;;;5007756;28;19925;-67
2021/08/10 03:40:32;;;;;;;;;;;;;;;;;;5025449;23;19926;-70
2021/08/10 03:42:59;;;;;;;;;;;;;;;;;;5051127;28;20019;-71
2021/08/10 03:45:26;;;;;;;;;;;;;;;;;;5052984;28;20323;-71
2021/08/10 03:47:53;;;;;;;;;;;;;;;;;;5046916;28;20011;-70
2021/08/10 03:50:20;;;;;;;;;;;;;;;;;;5046972;28;20039;-70
2021/08/10 03:52:47;;;;;;;;;;;;;;;;;;5046043;28;19929;-70
2021/08/10 03:55:15;;;;;;;;;;;;;;;;;;5047556;28;20411;-70
2021/08/10 03:57:42;;;;;;;;;;;;;;;;;;5046760;28;19925;-69
2021/08/10 04:00:09;;;;;;;;;;;;;;;;;;5045089;28;19932;-71
2021/08/10 04:02:36;;;;;;;;;;;;;;;;;;5044157;28;19925;-70
2021/08/10 04:05:03;;;;;;;;;;;;;;;;;;5044666;28;20341;-70
2021/08/10 04:07:31;;;;;;;;;;;;;;;;;;5049177;28;19932;-71
2021/08/10 04:09:59;;;;;;;;;;;;;;;;;;5045588;28;20024;-70
2021/08/10 04:12:26;;;;;;;;;;;;;;;;;;5046654;28;19931;-70
2021/08/10 04:14:53;;;;;;;;;;;;;;;;;;5051143;28;19924;-71
2021/08/10 04:17:20;;;;;;;;;;;;;;;;;;5047837;28;19925;-70
2021/08/10 04:19:49;;;;;;;;;;;;;;;;;;5040698;28;20530;-69
2021/08/10 04:22:16;;;;;;;;;;;;;;;;;;5044954;28;19975;-70
2021/08/10 04:24:44;;;;;;;;;;;;;;;;;;5045036;28;20377;-70
2021/08/10 04:27:11;;;;;;;;;;;;;;;;;;5053329;28;19925;-69
2021/08/10 04:29:38;;;;;;;;;;;;;;;;;;5057869;28;19925;-69
2021/08/10 04:32:05;;;;;;;;;;;;;;;;;;5048335;28;19929;-69
2021/08/10 04:34:33;;;;;;;;;;;;;;;;;;5051418;28;19925;-69
2021/08/10 04:37:00;;;;;;;;;;;;;;;;;;5048308;28;19960;-71
2021/08/10 04:39:28;;;;;;;;;;;;;;;;;;5052658;28;19935;-71
2021/08/10 04:41:55;;;;;;;;;;;;;;;;;;5050697;28;19928;-70
2021/08/10 04:44:22;;;;;;;;;;;;;;;;;;5053681;28;19925;-71
2021/08/10 04:46:49;;;;;;;;;;;;;;;;;;5049455;28;19931;-71
2021/08/10 04:49:16;;;;;;;;;;;;;;;;;;5053275;28;19928;-70
2021/08/10 04:51:43;;;;;;;;;;;;;;;;;;5048524;28;19963;-70
2021/08/10 04:54:14;;;;;;;;;;;;;;;;;;5046549;28;19950;-70
2021/08/10 04:56:41;;;;;;;;;;;;;;;;;;5046184;28;19953;-70
2021/08/10 04:59:08;;;;;;;;;;;;;;;;;;5051151;28;20011;-70
2021/08/10 05:01:35;;;;;;;;;;;;;;;;;;5044685;28;20015;-70
2021/08/10 05:04:02;;;;;;;;;;;;;;;;;;5046887;28;20012;-69
2021/08/10 05:06:29;;;;;;;;;;;;;;;;;;5049392;28;19931;-70
2021/08/10 05:08:56;;;;;;;;;;;;;;;;;;5051519;28;19928;-69
2021/08/10 05:11:23;;;;;;;;;;;;;;;;;;5058233;28;19924;-70
2021/08/10 05:13:50;;;;;;;;;;;;;;;;;;5048198;28;19932;-70
2021/08/10 05:16:17;;;;;;;;;;;;;;;;;;5047402;28;19929;-68
2021/08/10 05:18:46;;;;;;;;;;;;;;;;;;5052377;28;19933;-69
2021/08/10 05:21:15;;;;;;;;;;;;;;;;;;5045525;28;19925;-70
2021/08/10 05:23:42;;;;;;;;;;;;;;;;;;5051791;28;19924;-69
2021/08/10 05:26:09;;;;;;;;;;;;;;;;;;5049799;28;19935;-71
2021/08/10 05:28:36;;;;;;;;;;;;;;;;;;5046882;28;20399;-70
2021/08/10 05:31:03;;;;;;;;;;;;;;;;;;5050677;28;19932;-69
2021/08/10 05:33:30;;;;;;;;;;;;;;;;;;5050325;28;19929;-69
2021/08/10 05:35:57;;;;;;;;;;;;;;;;;;5047750;28;19974;-70
2021/08/10 05:38:24;;;;;;;;;;;;;;;;;;5053521;28;19932;-68
2021/08/10 05:40:53;;;;;;;;;;;;;;;;;;5047840;28;19932;-71
2021/08/10 05:43:20;;;;;;;;;;;;;;;;;;5044387;28;20460;-70
2021/08/10 05:45:46;;;;;;;;;;;;;;;;;;5039717;28;19933;-70
2021/08/10 05:48:13;;;;;;;;;;;;;;;;;;5053406;28;19932;-70
2021/08/10 05:50:40;;;;;;;;;;;;;;;;;;5050450;28;19932;-70
2021/08/10 05:53:07;;;;;;;;;;;;;;;;;;5042762;28;19933;-70
2021/08/10 05:55:34;;;;;;;;;;;;;;;;;;5049433;28;19925;-70
2021/08/10 05:58:01;;;;;;;;;;;;;;;;;;5045446;28;19932;-70
2021/08/10 06:00:28;;;;;;;;;;;;;;;;;;5047973;28;19935;-70
2021/08/10 06:02:55;;;;;;;;;;;;;;;;;;5046708;28;19929;-70
2021/08/10 06:05:22;;;;;;;;;;;;;;;;;;5044074;28;19937;-70
2021/08/10 06:07:49;;;;;;;;;;;;;;;;;;5037973;28;19932;-70
2021/08/10 06:10:16;;;;;;;;;;;;;;;;;;5043258;28;19929;-70
2021/08/10 06:12:43;;;;;;;;;;;;;;;;;;5047964;28;19990;-70
2021/08/10 06:15:10;;;;;;;;;;;;;;;;;;5051228;28;19929;-70
2021/08/10 06:17:37;;;;;;;;;;;;;;;;;;5045760;28;19925;-71
2021/08/10 06:20:04;;;;;;;;;;;;;;;;;;5048550;28;19929;-70
2021/08/10 06:22:31;;;;;;;;;;;;;;;;;;5046981;28;19940;-70
2021/08/10 06:24:58;;;;;;;;;;;;;;;;;;5046988;28;20386;-70
2021/08/10 06:27:25;;;;;;;;;;;;;;;;;;5046076;28;20406;-69
2021/08/10 06:29:52;;;;;;;;;;;;;;;;;;5045971;28;19925;-68
2021/08/10 06:32:19;;;;;;;;;;;;;;;;;;5048002;28;19925;-68
2021/08/10 06:34:46;;;;;;;;;;;;;;;;;;5041933;28;19973;-68
2021/08/10 06:37:13;;;;;;;;;;;;;;;;;;5048230;28;20385;-68
2021/08/10 06:39:40;;;;;;;;;;;;;;;;;;5044335;28;19925;-68
2021/08/10 06:42:06;;;;;;;;;;;;;;;;;;5048362;28;19951;-69
2021/08/10 06:44:34;;;;;;;;;;;;;;;;;;5047730;28;20412;-70
2021/08/10 06:47:00;;;;;;;;;;;;;;;;;;5045801;28;20301;-69
2021/08/10 06:49:28;;;;;;;;;;;;;;;;;;5027897;28;19932;-69
2021/08/10 06:51:55;;;;;;;;;;;;;;;;;;5044561;28;19924;-68
2021/08/10 06:54:22;;;;;;;;;;;;;;;;;;5044507;28;20370;-70
2021/08/10 06:56:48;;;;;;;;;;;;;;;;;;5047088;28;19964;-68
2021/08/10 06:59:15;;;;;;;;;;;;;;;;;;5031265;28;19934;-68
2021/08/10 07:01:42;;;;;;;;;;;;;;;;;;5037899;28;19925;-70
2021/08/10 07:04:09;;;;;;;;;;;;;;;;;;5042348;28;19932;-68
2021/08/10 07:06:37;;;;;;;;;;;;;;;;;;5048272;28;19925;-68
2021/08/10 07:09:06;;;;;;;;;;;;;;;;;;5038789;28;20002;-68
2021/08/10 07:11:34;;;;;;;;;;;;;;;;;;5041134;28;19929;-68
2021/08/10 07:14:01;;;;;;;;;;;;;;;;;;5045709;28;20439;-68
2021/08/10 07:16:29;;;;;;;;;;;;;;;;;;5046077;28;19925;-70
2021/08/10 07:18:56;;;;;;;;;;;;;;;;;;5051361;28;20399;-69
2021/08/10 07:21:24;;;;;;;;;;;;;;;;;;5043046;28;19932;-70
2021/08/10 07:23:51;;;;;;;;;;;;;;;;;;5045219;28;20304;-68
2021/08/10 07:26:18;;;;;;;;;;;;;;;;;;5048509;28;20023;-70
2021/08/10 07:28:45;;;;;;;;;;;;;;;;;;5046378;28;19924;-69
2021/08/10 07:31:12;;;;;;;;;;;;;;;;;;5046655;28;19925;-68
2021/08/10 07:33:39;;;;;;;;;;;;;;;;;;5046431;28;20388;-68
2021/08/10 07:36:06;;;;;;;;;;;;;;;;;;5047443;28;20023;-68
2021/08/10 07:38:33;;;;;;;;;;;;;;;;;;5050051;28;19930;-68
2021/08/10 07:41:00;;;;;;;;;;;;;;;;;;5048606;28;19924;-68
2021/08/10 07:43:27;;;;;;;;;;;;;;;;;;5046855;28;19933;-68
2021/08/10 07:45:54;;;;;;;;;;;;;;;;;;5047724;28;20307;-68
2021/08/10 07:48:21;;;;;;;;;;;;;;;;;;5051306;28;19925;-70
2021/08/10 07:50:48;;;;;;;;;;;;;;;;;;5046416;28;19925;-68
2021/08/10 07:53:15;;;;;;;;;;;;;;;;;;5047100;28;19947;-70
2021/08/10 07:55:42;;;;;;;;;;;;;;;;;;5048144;28;19936;-68
2021/08/10 07:58:09;;;;;;;;;;;;;;;;;;5041740;28;19936;-69
2021/08/10 08:00:36;;;;;;;;;;;;;;;;;;5036581;28;20578;-69
2021/08/10 08:03:03;;;;;;;;;;;;;;;;;;5037382;28;19935;-68
2021/08/10 08:05:30;;;;;;;;;;;;;;;;;;5042781;28;19931;-70
2021/08/10 08:07:57;;;;;;;;;;;;;;;;;;5049955;28;19940;-69
2021/08/10 08:10:24;;;;;;;;;;;;;;;;;;5051387;28;19929;-70
2021/08/10 08:12:51;;;;;;;;;;;;;;;;;;5050563;28;19925;-68
2021/08/10 08:15:18;;;;;;;;;;;;;;;;;;5048684;28;19925;-70
2021/08/10 08:17:45;;;;;;;;;;;;;;;;;;5049894;28;19931;-70
2021/08/10 08:20:12;;;;;;;;;;;;;;;;;;5052340;28;19940;-70
2021/08/10 08:22:39;;;;;;;;;;;;;;;;;;5050378;28;20385;-70
2021/08/10 08:25:06;;;;;;;;;;;;;;;;;;5049877;28;19932;-68
2021/08/10 08:27:33;;;;;;;;;;;;;;;;;;5055169;28;19924;-71
2021/08/10 08:30:00;;;;;;;;;;;;;;;;;;5054339;28;19963;-70
2021/08/10 08:32:27;;;;;;;;;;;;;;;;;;5052058;28;19924;-71
2021/08/10 08:34:54;;;;;;;;;;;;;;;;;;5053335;28;19932;-69
2021/08/10 08:37:21;;;;;;;;;;;;;;;;;;5053926;28;19931;-70
2021/08/10 08:39:48;;;;;;;;;;;;;;;;;;5054068;28;20443;-68
2021/08/10 08:42:15;;;;;;;;;;;;;;;;;;5059528;28;20293;-71
2021/08/10 08:44:42;;;;;;;;;;;;;;;;;;5055548;28;19931;-70
2021/08/10 08:47:09;;;;;;;;;;;;;;;;;;5053783;28;19925;-71
2021/08/10 08:49:36;;;;;;;;;;;;;;;;;;5047668;28;19928;-70
2021/08/10 08:52:03;;;;;;;;;;;;;;;;;;5052097;28;19957;-70
2021/08/10 08:54:30;;;;;;;;;;;;;;;;;;5055887;28;20026;-68
2021/08/10 08:56:57;;;;;;;;;;;;;;;;;;5050649;28;19925;-69
2021/08/10 08:59:24;;;;;;;;;;;;;;;;;;5052480;28;19964;-68
2021/08/10 09:01:51;;;;;;;;;;;;;;;;;;5039003;28;20000;-68
2021/08/10 09:04:18;;;;;;;;;;;;;;;;;;5048757;28;19928;-69
2021/08/10 09:06:45;;;;;;;;;;;;;;;;;;5049408;28;19929;-71
2021/08/10 09:09:12;;;;;;;;;;;;;;;;;;5048763;28;20124;-68
2021/08/10 09:11:39;;;;;;;;;;;;;;;;;;5051768;28;19935;-70
2021/08/10 09:14:06;;;;;;;;;;;;;;;;;;5041314;28;19925;-70
2021/08/10 09:16:35;;;;;;;;;;;;;;;;;;5044902;28;20876;-70
2021/08/10 09:19:02;;;;;;;;;;;;;;;;;;5041865;28;20384;-68
2021/08/10 09:21:29;;;;;;;;;;;;;;;;;;5043646;28;19936;-71
2021/08/10 09:23:56;;;;;;;;;;;;;;;;;;5035272;28;20015;-71
2021/08/10 09:26:23;;;;;;;;;;;;;;;;;;5042535;28;19970;-70
2021/08/10 09:28:50;;;;;;;;;;;;;;;;;;5040798;28;19936;-69
2021/08/10 09:31:17;;;;;;;;;;;;;;;;;;5036838;28;19932;-70
2021/08/10 09:33:44;;;;;;;;;;;;;;;;;;5037142;28;20392;-68
2021/08/10 09:36:11;;;;;;;;;;;;;;;;;;5043595;28;21477;-69
2021/08/10 09:38:38;;;;;;;;;;;;;;;;;;5038763;28;19929;-68
2021/08/10 09:41:05;;;;;;;;;;;;;;;;;;5054895;22;19926;-68
2021/08/10 09:43:32;;;;;;;;;;;;;;;;;;5026153;28;19935;-68
2021/08/10 09:45:59;;;;;;;;;;;;;;;;;;5024854;28;19925;-69
2021/08/10 09:48:26;;;;;;;;;;;;;;;;;;5028596;28;19929;-68
2021/08/10 09:50:53;;;;;;;;;;;;;;;;;;5031401;28;19932;-68
2021/08/10 09:53:20;;;;;;;;;;;;;;;;;;5007073;28;19926;-69
2021/08/10 09:55:47;;;;;;;;;;;;;;;;;;5009484;28;19969;-69
2021/08/10 09:58:15;;;;;;;;;;;;;;;;;;5007532;28;19926;-67
2021/08/10 10:00:42;;;;;;;;;;;;;;;;;;5011364;28;20419;-69
2021/08/10 10:03:12;;;;;;;;;;;;;;;;;;5001484;28;19925;-68
2021/08/10 10:05:39;;;;;;;;;;;;;;;;;;5000252;28;19968;-68
2021/08/10 10:08:06;;;;;;;;;;;;;;;;;;5009623;28;20411;-69
2021/08/10 10:10:33;;;;;;;;;;;;;;;;;;5000848;28;20286;-67
2021/08/10 10:13:00;;;;;;;;;;;;;;;;;;5004792;28;19972;-69
2021/08/10 10:15:27;;;;;;;;;;;;;;;;;;4995313;28;20025;-70
2021/08/10 10:17:54;;;;;;;;;;;;;;;;;;5001660;28;20401;-68
2021/08/10 10:20:22;;;;;;;;;;;;;;;;;;5002543;28;19925;-68
2021/08/10 10:22:49;;;;;;;;;;;;;;;;;;5002745;28;19933;-69
2021/08/10 10:25:16;;;;;;;;;;;;;;;;;;5007147;28;19930;-68
2021/08/10 10:27:43;;;;;;;;;;;;;;;;;;5008303;28;20285;-68
2021/08/10 10:30:10;;;;;;;;;;;;;;;;;;5003653;28;19926;-68
2021/08/10 10:32:37;;;;;;;;;;;;;;;;;;4999145;28;19930;-69
2021/08/10 10:35:04;;;;;;;;;;;;;;;;;;5003053;28;19926;-67
2021/08/10 10:37:31;;;;;;;;;;;;;;;;;;5010412;28;19926;-68
2021/08/10 10:39:58;;;;;;;;;;;;;;;;;;5004985;28;19934;-68
2021/08/10 10:42:25;;;;;;;;;;;;;;;;;;4999655;28;19934;-68
2021/08/10 10:44:52;;;;;;;;;;;;;;;;;;5002681;28;20274;-68
2021/08/10 10:47:19;;;;;;;;;;;;;;;;;;5008053;28;19943;-67
2021/08/10 10:49:46;;;;;;;;;;;;;;;;;;4999744;28;20306;-73
2021/08/10 10:52:13;;;;;;;;;;;;;;;;;;4997626;28;19932;-68
2021/08/10 10:54:40;;;;;;;;;;;;;;;;;;5013350;28;20032;-68
2021/08/10 10:57:07;;;;;;;;;;;;;;;;;;4998895;28;19932;-68
2021/08/10 10:59:34;;;;;;;;;;;;;;;;;;5011732;28;20551;-68
2021/08/10 11:02:06;;;;;;;;;;;;;;;;;;5000688;28;19926;-67
2021/08/10 11:04:33;;;;;;;;;;;;;;;;;;4998987;28;19930;-68
2021/08/10 11:07:00;;;;;;;;;;;;;;;;;;4999592;28;19980;-67
2021/08/10 11:09:27;;;;;;;;;;;;;;;;;;5003274;28;19930;-68
2021/08/10 11:11:55;;;;;;;;;;;;;;;;;;5003416;28;20000;-67
2021/08/10 11:14:22;;;;;;;;;;;;;;;;;;5005529;28;19933;-68
2021/08/10 11:16:49;;;;;;;;;;;;;;;;;;5006100;28;19934;-70
2021/08/10 11:19:16;;;;;;;;;;;;;;;;;;5006181;28;19983;-67
2021/08/10 11:21:43;;;;;;;;;;;;;;;;;;5000912;28;19926;-67
2021/08/10 11:24:10;;;;;;;;;;;;;;;;;;5002028;28;19926;-68
2021/08/10 11:26:37;;;;;;;;;;;;;;;;;;5002040;28;20407;-70
2021/08/10 11:29:04;;;;;;;;;;;;;;;;;;5000241;28;20385;-69
2021/08/10 11:31:31;;;;;;;;;;;;;;;;;;5001089;28;20308;-67
2021/08/10 11:33:58;;;;;;;;;;;;;;;;;;5004587;28;19925;-68
2021/08/10 11:36:25;;;;;;;;;;;;;;;;;;5007133;28;19926;-68
2021/08/10 11:38:52;;;;;;;;;;;;;;;;;;5003769;28;19926;-68
2021/08/10 11:41:19;;;;;;;;;;;;;;;;;;5013419;28;19929;-68
2021/08/10 11:43:46;;;;;;;;;;;;;;;;;;5023003;28;19929;-68
2021/08/10 11:46:13;;;;;;;;;;;;;;;;;;5008224;28;19934;-68
2021/08/10 11:48:40;;;;;;;;;;;;;;;;;;5007743;28;19930;-68
2021/08/10 11:51:07;;;;;;;;;;;;;;;;;;5007461;28;19940;-67
2021/08/10 11:53:35;;;;;;;;;;;;;;;;;;5000668;28;20309;-67
2021/08/10 11:56:02;;;;;;;;;;;;;;;;;;5000513;28;19926;-67
2021/08/10 11:58:29;;;;;;;;;;;;;;;;;;5006452;28;19925;-67
2021/08/10 12:00:56;;;;;;;;;;;;;;;;;;5007504;28;19929;-67
2021/08/10 12:03:22;;;;;;;;;;;;;;;;;;5003329;28;19925;-68
2021/08/10 12:05:49;;;;;;;;;;;;;;;;;;5009999;28;19925;-68
2021/08/10 12:08:16;;;;;;;;;;;;;;;;;;5004637;28;19929;-68
2021/08/10 12:10:43;;;;;;;;;;;;;;;;;;5003636;28;20366;-68
2021/08/10 12:13:10;;;;;;;;;;;;;;;;;;5002936;28;19932;-68
2021/08/10 12:15:39;;;;;;;;;;;;;;;;;;5002116;28;20029;-68
2021/08/10 12:18:06;;;;;;;;;;;;;;;;;;5003524;28;19932;-68
2021/08/10 12:20:33;;;;;;;;;;;;;;;;;;4998471;28;19932;-67
2021/08/10 12:23:00;;;;;;;;;;;;;;;;;;4999530;28;19929;-67
2021/08/10 12:25:27;;;;;;;;;;;;;;;;;;5010277;28;19957;-67
2021/08/10 12:27:54;;;;;;;;;;;;;;;;;;5004531;28;19964;-68
2021/08/10 12:30:21;;;;;;;;;;;;;;;;;;5008152;28;19926;-68
2021/08/10 12:32:48;;;;;;;;;;;;;;;;;;4997759;28;19932;-68
2021/08/10 12:35:17;;;;;;;;;;;;;;;;;;5001266;28;19925;-67
2021/08/10 12:37:44;;;;;;;;;;;;;;;;;;5002669;28;19929;-68
2021/08/10 12:40:11;;;;;;;;;;;;;;;;;;5004622;28;20012;-68
2021/08/10 12:42:37;;;;;;;;;;;;;;;;;;5004782;28;19925;-67
2021/08/10 12:45:04;;;;;;;;;;;;;;;;;;4996413;28;19929;-67
2021/08/10 12:47:31;;;;;;;;;;;;;;;;;;5003958;28;20306;-68
2021/08/10 12:49:59;;;;;;;;;;;;;;;;;;5003148;28;19926;-67
2021/08/10 12:52:26;;;;;;;;;;;;;;;;;;5000196;28;19965;-68
2021/08/10 12:54:53;;;;;;;;;;;;;;;;;;4997434;28;19941;-68
2021/08/10 12:57:20;;;;;;;;;;;;;;;;;;5005253;28;19929;-68
2021/08/10 12:59:49;;;;;;;;;;;;;;;;;;4997136;28;19933;-68
2021/08/10 13:02:16;;;;;;;;;;;;;;;;;;5001338;28;20440;-68
2021/08/10 13:04:43;;;;;;;;;;;;;;;;;;5001477;28;20579;-68
2021/08/10 13:07:10;;;;;;;;;;;;;;;;;;5005480;28;20425;-68
2021/08/10 13:09:37;;;;;;;;;;;;;;;;;;5000364;28;19929;-68
2021/08/10 13:12:04;;;;;;;;;;;;;;;;;;5002267;28;19925;-68
2021/08/10 13:14:31;;;;;;;;;;;;;;;;;;5004679;28;19925;-68
2021/08/10 13:16:57;;;;;;;;;;;;;;;;;;4998254;28;19926;-68
2021/08/10 13:19:24;;;;;;;;;;;;;;;;;;5005395;28;19932;-68
2021/08/10 13:21:51;;;;;;;;;;;;;;;;;;5005478;28;19933;-68
2021/08/10 13:24:19;;;;;;;;;;;;;;;;;;4996301;28;19925;-68
2021/08/10 13:26:46;;;;;;;;;;;;;;;;;;5005083;28;19949;-67
2021/08/10 13:29:13;;;;;;;;;;;;;;;;;;5003570;28;19937;-68
2021/08/10 13:31:40;;;;;;;;;;;;;;;;;;4997596;28;19930;-68
2021/08/10 13:34:09;;;;;;;;;;;;;;;;;;4999338;28;20001;-67
2021/08/10 13:36:36;;;;;;;;;;;;;;;;;;5001349;28;19940;-68
2021/08/10 13:39:03;;;;;;;;;;;;;;;;;;4997880;28;20361;-68
2021/08/10 13:41:30;;;;;;;;;;;;;;;;;;4999837;28;19925;-68
2021/08/10 13:43:56;;;;;;;;;;;;;;;;;;5004529;28;20393;-67
2021/08/10 13:46:28;;;;;;;;;;;;;;;;;;5002633;28;20417;-68
2021/08/10 13:48:55;;;;;;;;;;;;;;;;;;4996593;28;19933;-67
2021/08/10 13:51:22;;;;;;;;;;;;;;;;;;5003059;28;19929;-68
2021/08/10 13:53:49;;;;;;;;;;;;;;;;;;4998778;28;19930;-68
2021/08/10 13:56:18;;;;;;;;;;;;;;;;;;4998707;28;20417;-68
2021/08/10 13:58:44;;;;;;;;;;;;;;;;;;4997946;28;19933;-68
2021/08/10 14:01:14;;;;;;;;;;;;;;;;;;4997203;28;20294;-68
2021/08/10 14:03:41;;;;;;;;;;;;;;;;;;5000167;28;19963;-68
2021/08/10 14:06:08;;;;;;;;;;;;;;;;;;4998002;28;20385;-69
2021/08/10 14:08:35;;;;;;;;;;;;;;;;;;4995269;28;19935;-67
2021/08/10 14:11:02;;;;;;;;;;;;;;;;;;5000808;28;19929;-66
2021/08/10 14:13:29;;;;;;;;;;;;;;;;;;4996149;28;19926;-67
2021/08/10 14:15:56;;;;;;;;;;;;;;;;;;5001537;28;19933;-67
2021/08/10 14:18:23;;;;;;;;;;;;;;;;;;5000556;28;19933;-67
2021/08/10 14:20:50;;;;;;;;;;;;;;;;;;4996296;28;19925;-67
2021/08/10 14:23:17;;;;;;;;;;;;;;;;;;5002904;28;19936;-67
2021/08/10 14:25:44;;;;;;;;;;;;;;;;;;4998193;28;19943;-68
2021/08/10 14:28:11;;;;;;;;;;;;;;;;;;4999294;28;19926;-66
2021/08/10 14:30:38;;;;;;;;;;;;;;;;;;5008081;28;19925;-66
2021/08/10 14:33:05;;;;;;;;;;;;;;;;;;4999446;28;19930;-66
2021/08/10 14:35:32;;;;;;;;;;;;;;;;;;4997701;28;19933;-66
2021/08/10 14:37:59;;;;;;;;;;;;;;;;;;5003471;28;20029;-66
2021/08/10 14:40:27;;;;;;;;;;;;;;;;;;5003050;28;19949;-67
2021/08/10 14:42:54;;;;;;;;;;;;;;;;;;5001480;28;20647;-68
2021/08/10 14:45:21;;;;;;;;;;;;;;;;;;5001378;28;19929;-68
2021/08/10 14:47:48;;;;;;;;;;;;;;;;;;5000000;28;20297;-66
2021/08/10 14:50:15;;;;;;;;;;;;;;;;;;5007888;28;19925;-67
2021/08/10 14:52:42;;;;;;;;;;;;;;;;;;5003162;28;19925;-67
2021/08/10 14:55:09;;;;;;;;;;;;;;;;;;5000905;28;19925;-68
2021/08/10 14:57:37;;;;;;;;;;;;;;;;;;5001136;28;19987;-67
2021/08/10 15:00:04;;;;;;;;;;;;;;;;;;4997809;28;20370;-68
2021/08/10 15:02:31;;;;;;;;;;;;;;;;;;5001991;28;20008;-68
2021/08/10 15:04:58;;;;;;;;;;;;;;;;;;5008214;28;19932;-68
2021/08/10 15:07:25;;;;;;;;;;;;;;;;;;4997096;28;19937;-68
2021/08/10 15:09:52;;;;;;;;;;;;;;;;;;5009283;28;19935;-70
2021/08/10 15:12:19;;;;;;;;;;;;;;;;;;4999924;28;20278;-67
2021/08/10 15:14:46;;;;;;;;;;;;;;;;;;4996405;28;19929;-68
2021/08/10 15:17:13;;;;;;;;;;;;;;;;;;5004762;28;19932;-69
2021/08/10 15:19:40;;;;;;;;;;;;;;;;;;5000191;28;20335;-67
2021/08/10 15:22:07;;;;;;;;;;;;;;;;;;5000882;28;19941;-68
2021/08/10 15:24:36;;;;;;;;;;;;;;;;;;5005222;28;19956;-67
2021/08/10 15:27:03;;;;;;;;;;;;;;;;;;5009304;28;20031;-68
2021/08/10 15:29:30;;;;;;;;;;;;;;;;;;4998538;28;19925;-66
2021/08/10 15:31:57;;;;;;;;;;;;;;;;;;5000698;28;20012;-67
2021/08/10 15:34:25;;;;;;;;;;;;;;;;;;5006645;28;20437;-67
2021/08/10 15:36:53;;;;;;;;;;;;;;;;;;5007508;28;20518;-67
2021/08/10 15:39:20;;;;;;;;;;;;;;;;;;4999208;28;19930;-67
2021/08/10 15:41:50;;;;;;;;;;;;;;;;;;5035254;22;19932;-72
2021/08/10 15:44:22;;;;;;;;;;;;;;;;;;5056583;28;19912;-74
2021/08/10 15:46:58;;;;;;;;;;;;;;;;;;5069117;28;19955;-75
2021/08/10 15:49:26;;;;;;;;;;;;;;;;;;5046341;28;19924;-73
2021/08/10 15:51:53;;;;;;;;;;;;;;;;;;5046587;28;19925;-73
2021/08/10 15:54:20;;;;;;;;;;;;;;;;;;5049500;28;19929;-73
2021/08/10 15:56:46;;;;;;;;;;;;;;;;;;5045508;28;19938;-74
2021/08/10 15:59:14;;;;;;;;;;;;;;;;;;5059075;28;19924;-73
2021/08/10 16:01:45;;;;;;;;;;;;;;;;;;5062101;28;19912;-72
2021/08/10 16:04:13;;;;;;;;;;;;;;;;;;5060674;28;19913;-75
2021/08/10 16:06:44;;;;;;;;;;;;;;;;;;5074729;28;19931;-74
2021/08/10 16:17:36;;;;;;;;;;;;;;;;;;4996631;28;19914;-75
2021/08/10 16:25:31;;;;;;;;;;;;;;;;;;5028811;28;19936;-73
2021/08/10 16:30:39;;;;;;;;;;;;;;;;;;5024145;28;19971;-73
2021/08/10 16:33:06;;;;;;;;;;;;;;;;;;5050753;28;20015;-72
2021/08/10 16:35:33;;;;;;;;;;;;;;;;;;5052616;28;19935;-74
2021/08/10 16:38:00;;;;;;;;;;;;;;;;;;5057201;28;19972;-72
2021/08/10 16:40:27;;;;;;;;;;;;;;;;;;5048210;28;19951;-71
2021/08/10 16:42:54;;;;;;;;;;;;;;;;;;5048343;28;20007;-72
2021/08/10 16:45:21;;;;;;;;;;;;;;;;;;5055211;28;20625;-72
2021/08/10 16:47:48;;;;;;;;;;;;;;;;;;5052714;28;19929;-72
2021/08/10 16:50:15;;;;;;;;;;;;;;;;;;5052489;28;19929;-73
2021/08/10 16:52:42;;;;;;;;;;;;;;;;;;5048404;28;20003;-73
2021/08/10 16:55:09;;;;;;;;;;;;;;;;;;5049862;28;19948;-74
2021/08/10 16:57:36;;;;;;;;;;;;;;;;;;5053888;28;19925;-74
2021/08/10 17:00:03;;;;;;;;;;;;;;;;;;5056813;28;19988;-73
2021/08/10 17:02:30;;;;;;;;;;;;;;;;;;5062314;28;19929;-74